sensor_id;sensor_type;location;lat;lon;timestamp;P1;durP1;ratioP1;P2;durP2;ratioP2
62925;SDS011;55732;52.248;-0.844;2022-11-15T00:00:48;6.10;;;2.90;;
62925;SDS011;55732;52.248;-0.844;2022-11-15T00:03:19;6.20;;;2.60;;
62925;SDS011;55732;52.248;-0.844;2022-11-15T00:05:46;8.20;;;2.50;;
62925;SDS011;55732;52.248;-0.844;2022-11-15T00:08:12;5.30;;;2.50;;
62925;SDS011;55732;52.248;-0.844;2022-11-15T00:10:38;6.70;;;3.00;;
62925;SDS011;55732;52.248;-0.844;2022-11-15T00:13:08;3.60;;;2.50;;
62925;SDS011;55732;52.248;-0.844;2022-11-15T00:15:35;8.40;;;3.00;;
62925;SDS011;55732;52.248;-0.844;2022-11-15T00:18:03;3.10;;;2.20;;
62925;SDS011;55732;52.248;-0.844;2022-11-15T00:20:29;5.80;;;2.20;;
62925;SDS011;55732;52.248;-0.844;2022-11-15T00:22:54;4.60;;;2.50;;
62925;SDS011;55732;52.248;-0.844;2022-11-15T00:25:20;5.90;;;2.00;;
62925;SDS011;55732;52.248;-0.844;2022-11-15T00:27:45;4.60;;;2.30;;
62925;SDS011;55732;52.248;-0.844;2022-11-15T00:30:11;2.90;;;2.00;;
62925;SDS011;55732;52.248;-0.844;2022-11-15T00:32:37;5.40;;;2.10;;
62925;SDS011;55732;52.248;-0.844;2022-11-15T00:35:03;3.40;;;2.00;;
62925;SDS011;55732;52.248;-0.844;2022-11-15T00:37:29;7.30;;;2.20;;
62925;SDS011;55732;52.248;-0.844;2022-11-15T00:39:54;9.80;;;2.00;;
62925;SDS011;55732;52.248;-0.844;2022-11-15T00:42:19;6.00;;;2.00;;
62925;SDS011;55732;52.248;-0.844;2022-11-15T00:44:45;7.10;;;2.00;;
62925;SDS011;55732;52.248;-0.844;2022-11-15T00:47:10;7.20;;;2.30;;
62925;SDS011;55732;52.248;-0.844;2022-11-15T00:49:35;7.60;;;1.80;;
62925;SDS011;55732;52.248;-0.844;2022-11-15T00:52:01;6.70;;;2.00;;
62925;SDS011;55732;52.248;-0.844;2022-11-15T00:54:26;4.80;;;1.70;;
62925;SDS011;55732;52.248;-0.844;2022-11-15T00:56:52;5.30;;;2.20;;
62925;SDS011;55732;52.248;-0.844;2022-11-15T00:59:17;8.10;;;2.00;;
62925;SDS011;55732;52.248;-0.844;2022-11-15T01:01:43;5.10;;;1.60;;
62925;SDS011;55732;52.248;-0.844;2022-11-15T01:04:08;7.30;;;1.60;;
62925;SDS011;55732;52.248;-0.844;2022-11-15T01:06:34;2.90;;;1.50;;
62925;SDS011;55732;52.248;-0.844;2022-11-15T01:08:59;9.40;;;2.10;;
62925;SDS011;55732;52.248;-0.844;2022-11-15T01:11:24;7.00;;;1.50;;
62925;SDS011;55732;52.248;-0.844;2022-11-15T01:13:50;8.50;;;2.60;;
62925;SDS011;55732;52.248;-0.844;2022-11-15T01:16:16;8.80;;;2.10;;
62925;SDS011;55732;52.248;-0.844;2022-11-15T01:18:43;5.50;;;1.70;;
62925;SDS011;55732;52.248;-0.844;2022-11-15T01:21:10;6.70;;;1.60;;
62925;SDS011;55732;52.248;-0.844;2022-11-15T01:23:40;6.80;;;1.80;;
62925;SDS011;55732;52.248;-0.844;2022-11-15T01:26:07;7.20;;;2.20;;
62925;SDS011;55732;52.248;-0.844;2022-11-15T01:28:36;3.40;;;1.90;;
62925;SDS011;55732;52.248;-0.844;2022-11-15T01:31:04;3.90;;;1.40;;
62925;SDS011;55732;52.248;-0.844;2022-11-15T01:33:33;3.60;;;1.80;;
62925;SDS011;55732;52.248;-0.844;2022-11-15T01:36:02;2.30;;;1.20;;
62925;SDS011;55732;52.248;-0.844;2022-11-15T01:38:29;7.80;;;1.50;;
62925;SDS011;55732;52.248;-0.844;2022-11-15T01:40:54;5.00;;;1.40;;
62925;SDS011;55732;52.248;-0.844;2022-11-15T01:43:20;4.60;;;2.00;;
62925;SDS011;55732;52.248;-0.844;2022-11-15T01:45:52;4.90;;;1.70;;
62925;SDS011;55732;52.248;-0.844;2022-11-15T01:48:25;8.50;;;1.90;;
62925;SDS011;55732;52.248;-0.844;2022-11-15T01:50:57;3.60;;;1.60;;
62925;SDS011;55732;52.248;-0.844;2022-11-15T01:53:24;6.00;;;2.20;;
62925;SDS011;55732;52.248;-0.844;2022-11-15T01:55:51;7.00;;;1.50;;
62925;SDS011;55732;52.248;-0.844;2022-11-15T01:58:18;9.20;;;1.60;;
62925;SDS011;55732;52.248;-0.844;2022-11-15T02:00:45;3.70;;;1.40;;
62925;SDS011;55732;52.248;-0.844;2022-11-15T02:03:12;6.10;;;1.60;;
62925;SDS011;55732;52.248;-0.844;2022-11-15T02:05:39;6.70;;;1.90;;
62925;SDS011;55732;52.248;-0.844;2022-11-15T02:08:06;6.90;;;1.70;;
62925;SDS011;55732;52.248;-0.844;2022-11-15T02:10:32;8.80;;;2.00;;
62925;SDS011;55732;52.248;-0.844;2022-11-15T02:12:57;5.20;;;1.80;;
62925;SDS011;55732;52.248;-0.844;2022-11-15T02:15:27;8.80;;;1.70;;
62925;SDS011;55732;52.248;-0.844;2022-11-15T02:18:16;8.80;;;1.90;;
62925;SDS011;55732;52.248;-0.844;2022-11-15T02:20:55;6.20;;;2.00;;
62925;SDS011;55732;52.248;-0.844;2022-11-15T02:32:13;5.40;;;1.60;;
62925;SDS011;55732;52.248;-0.844;2022-11-15T02:37:27;11.50;;;2.00;;
62925;SDS011;55732;52.248;-0.844;2022-11-15T02:42:50;5.50;;;2.00;;
62925;SDS011;55732;52.248;-0.844;2022-11-15T02:45:50;10.00;;;1.80;;
62925;SDS011;55732;52.248;-0.844;2022-11-15T02:48:31;7.80;;;1.90;;
62925;SDS011;55732;52.248;-0.844;2022-11-15T02:51:13;11.60;;;2.40;;
62925;SDS011;55732;52.248;-0.844;2022-11-15T02:53:48;7.40;;;1.80;;
62925;SDS011;55732;52.248;-0.844;2022-11-15T02:56:24;6.00;;;1.40;;
62925;SDS011;55732;52.248;-0.844;2022-11-15T03:03:18;16.70;;;2.70;;
62925;SDS011;55732;52.248;-0.844;2022-11-15T03:04:55;10.90;;;2.80;;
62925;SDS011;55732;52.248;-0.844;2022-11-15T03:10:19;7.80;;;2.40;;
62925;SDS011;55732;52.248;-0.844;2022-11-15T03:13:01;5.10;;;2.10;;
62925;SDS011;55732;52.248;-0.844;2022-11-15T03:16:10;6.00;;;1.40;;
62925;SDS011;55732;52.248;-0.844;2022-11-15T03:18:48;4.10;;;1.40;;
62925;SDS011;55732;52.248;-0.844;2022-11-15T03:21:24;7.80;;;2.20;;
62925;SDS011;55732;52.248;-0.844;2022-11-15T03:23:56;10.20;;;2.20;;
62925;SDS011;55732;52.248;-0.844;2022-11-15T03:26:49;8.50;;;1.70;;
62925;SDS011;55732;52.248;-0.844;2022-11-15T03:31:58;8.10;;;2.10;;
62925;SDS011;55732;52.248;-0.844;2022-11-15T03:34:36;5.80;;;1.80;;
62925;SDS011;55732;52.248;-0.844;2022-11-15T03:37:16;6.40;;;1.30;;
62925;SDS011;55732;52.248;-0.844;2022-11-15T03:39:46;7.90;;;1.90;;
62925;SDS011;55732;52.248;-0.844;2022-11-15T03:42:27;6.10;;;1.60;;
62925;SDS011;55732;52.248;-0.844;2022-11-15T03:45:26;4.60;;;1.60;;
62925;SDS011;55732;52.248;-0.844;2022-11-15T03:48:24;8.60;;;1.90;;
62925;SDS011;55732;52.248;-0.844;2022-11-15T03:50:59;5.80;;;1.60;;
62925;SDS011;55732;52.248;-0.844;2022-11-15T03:53:25;11.60;;;2.00;;
62925;SDS011;55732;52.248;-0.844;2022-11-15T03:55:53;5.50;;;1.50;;
62925;SDS011;55732;52.248;-0.844;2022-11-15T03:58:19;10.30;;;2.10;;
62925;SDS011;55732;52.248;-0.844;2022-11-15T04:00:51;5.10;;;1.40;;
62925;SDS011;55732;52.248;-0.844;2022-11-15T04:03:20;6.40;;;1.80;;
62925;SDS011;55732;52.248;-0.844;2022-11-15T04:05:48;12.50;;;1.90;;
62925;SDS011;55732;52.248;-0.844;2022-11-15T04:08:14;3.80;;;1.40;;
62925;SDS011;55732;52.248;-0.844;2022-11-15T04:10:39;19.00;;;2.30;;
62925;SDS011;55732;52.248;-0.844;2022-11-15T04:13:05;7.20;;;1.60;;
62925;SDS011;55732;52.248;-0.844;2022-11-15T04:15:38;8.90;;;1.80;;
62925;SDS011;55732;52.248;-0.844;2022-11-15T04:18:04;4.90;;;1.60;;
62925;SDS011;55732;52.248;-0.844;2022-11-15T04:20:30;10.80;;;1.90;;
62925;SDS011;55732;52.248;-0.844;2022-11-15T04:23:21;10.10;;;2.60;;
62925;SDS011;55732;52.248;-0.844;2022-11-15T04:26:08;8.10;;;1.90;;
62925;SDS011;55732;52.248;-0.844;2022-11-15T04:28:46;6.90;;;2.00;;
62925;SDS011;55732;52.248;-0.844;2022-11-15T04:31:30;6.20;;;1.70;;
62925;SDS011;55732;52.248;-0.844;2022-11-15T04:33:59;7.40;;;1.80;;
62925;SDS011;55732;52.248;-0.844;2022-11-15T04:36:31;12.60;;;2.40;;
62925;SDS011;55732;52.248;-0.844;2022-11-15T04:39:15;6.00;;;2.00;;
62925;SDS011;55732;52.248;-0.844;2022-11-15T04:41:41;5.00;;;1.60;;
62925;SDS011;55732;52.248;-0.844;2022-11-15T04:44:09;13.80;;;2.30;;
62925;SDS011;55732;52.248;-0.844;2022-11-15T04:46:41;7.00;;;2.00;;
62925;SDS011;55732;52.248;-0.844;2022-11-15T04:49:14;7.60;;;1.80;;
62925;SDS011;55732;52.248;-0.844;2022-11-15T04:51:40;5.60;;;1.40;;
62925;SDS011;55732;52.248;-0.844;2022-11-15T04:54:05;8.40;;;2.80;;
62925;SDS011;55732;52.248;-0.844;2022-11-15T04:56:34;6.30;;;1.80;;
62925;SDS011;55732;52.248;-0.844;2022-11-15T04:59:00;10.00;;;2.00;;
62925;SDS011;55732;52.248;-0.844;2022-11-15T05:01:25;6.70;;;1.50;;
62925;SDS011;55732;52.248;-0.844;2022-11-15T05:04:09;9.40;;;2.00;;
62925;SDS011;55732;52.248;-0.844;2022-11-15T05:06:59;8.50;;;2.40;;
62925;SDS011;55732;52.248;-0.844;2022-11-15T05:11:58;8.50;;;1.80;;
62925;SDS011;55732;52.248;-0.844;2022-11-15T05:14:24;9.10;;;1.70;;
62925;SDS011;55732;52.248;-0.844;2022-11-15T05:16:49;6.10;;;2.10;;
62925;SDS011;55732;52.248;-0.844;2022-11-15T05:19:15;5.30;;;1.80;;
62925;SDS011;55732;52.248;-0.844;2022-11-15T05:21:44;8.20;;;1.70;;
62925;SDS011;55732;52.248;-0.844;2022-11-15T05:24:09;4.80;;;1.70;;
62925;SDS011;55732;52.248;-0.844;2022-11-15T05:26:42;11.60;;;2.20;;
62925;SDS011;55732;52.248;-0.844;2022-11-15T05:29:08;8.30;;;2.40;;
62925;SDS011;55732;52.248;-0.844;2022-11-15T05:31:39;9.00;;;2.30;;
62925;SDS011;55732;52.248;-0.844;2022-11-15T05:34:08;9.20;;;2.00;;
62925;SDS011;55732;52.248;-0.844;2022-11-15T05:36:41;8.50;;;2.00;;
62925;SDS011;55732;52.248;-0.844;2022-11-15T05:39:09;8.90;;;2.10;;
62925;SDS011;55732;52.248;-0.844;2022-11-15T05:41:42;7.20;;;2.10;;
62925;SDS011;55732;52.248;-0.844;2022-11-15T05:44:16;8.00;;;1.70;;
62925;SDS011;55732;52.248;-0.844;2022-11-15T05:47:00;9.80;;;2.10;;
62925;SDS011;55732;52.248;-0.844;2022-11-15T05:49:27;9.60;;;2.00;;
62925;SDS011;55732;52.248;-0.844;2022-11-15T05:51:57;7.20;;;2.00;;
62925;SDS011;55732;52.248;-0.844;2022-11-15T05:54:23;5.60;;;1.80;;
62925;SDS011;55732;52.248;-0.844;2022-11-15T05:56:50;7.40;;;2.10;;
62925;SDS011;55732;52.248;-0.844;2022-11-15T05:59:16;7.00;;;2.00;;
62925;SDS011;55732;52.248;-0.844;2022-11-15T06:01:42;6.30;;;2.20;;
62925;SDS011;55732;52.248;-0.844;2022-11-15T06:04:08;8.40;;;2.50;;
62925;SDS011;55732;52.248;-0.844;2022-11-15T06:06:33;7.10;;;1.90;;
62925;SDS011;55732;52.248;-0.844;2022-11-15T06:08:59;7.90;;;2.10;;
62925;SDS011;55732;52.248;-0.844;2022-11-15T06:11:24;8.90;;;2.10;;
62925;SDS011;55732;52.248;-0.844;2022-11-15T06:13:49;10.10;;;2.60;;
62925;SDS011;55732;52.248;-0.844;2022-11-15T06:16:15;6.10;;;1.90;;
62925;SDS011;55732;52.248;-0.844;2022-11-15T06:18:51;5.10;;;1.80;;
62925;SDS011;55732;52.248;-0.844;2022-11-15T06:21:16;6.00;;;1.70;;
62925;SDS011;55732;52.248;-0.844;2022-11-15T06:23:42;9.30;;;2.60;;
62925;SDS011;55732;52.248;-0.844;2022-11-15T06:26:08;6.50;;;2.30;;
62925;SDS011;55732;52.248;-0.844;2022-11-15T06:28:33;6.10;;;1.90;;
62925;SDS011;55732;52.248;-0.844;2022-11-15T06:31:06;5.10;;;2.00;;
62925;SDS011;55732;52.248;-0.844;2022-11-15T06:33:33;9.60;;;2.00;;
62925;SDS011;55732;52.248;-0.844;2022-11-15T06:36:05;10.30;;;2.10;;
62925;SDS011;55732;52.248;-0.844;2022-11-15T06:38:33;9.10;;;2.30;;
62925;SDS011;55732;52.248;-0.844;2022-11-15T06:41:06;6.70;;;2.20;;
62925;SDS011;55732;52.248;-0.844;2022-11-15T06:43:34;7.30;;;1.90;;
62925;SDS011;55732;52.248;-0.844;2022-11-15T06:46:00;13.60;;;2.20;;
62925;SDS011;55732;52.248;-0.844;2022-11-15T06:48:27;14.30;;;2.60;;
62925;SDS011;55732;52.248;-0.844;2022-11-15T06:50:53;7.10;;;1.90;;
62925;SDS011;55732;52.248;-0.844;2022-11-15T06:53:23;6.80;;;1.50;;
62925;SDS011;55732;52.248;-0.844;2022-11-15T06:55:50;10.40;;;2.10;;
62925;SDS011;55732;52.248;-0.844;2022-11-15T06:58:16;10.20;;;1.90;;
62925;SDS011;55732;52.248;-0.844;2022-11-15T07:00:41;9.20;;;2.20;;
62925;SDS011;55732;52.248;-0.844;2022-11-15T07:03:07;7.40;;;1.70;;
62925;SDS011;55732;52.248;-0.844;2022-11-15T07:05:33;11.20;;;2.00;;
62925;SDS011;55732;52.248;-0.844;2022-11-15T07:07:59;8.60;;;2.10;;
62925;SDS011;55732;52.248;-0.844;2022-11-15T07:10:25;5.90;;;2.00;;
62925;SDS011;55732;52.248;-0.844;2022-11-15T07:12:51;7.70;;;2.10;;
62925;SDS011;55732;52.248;-0.844;2022-11-15T07:15:18;10.00;;;2.10;;
62925;SDS011;55732;52.248;-0.844;2022-11-15T07:17:45;12.10;;;2.60;;
62925;SDS011;55732;52.248;-0.844;2022-11-15T07:20:10;11.90;;;2.50;;
62925;SDS011;55732;52.248;-0.844;2022-11-15T07:22:38;10.70;;;2.00;;
62925;SDS011;55732;52.248;-0.844;2022-11-15T07:25:04;6.70;;;2.00;;
62925;SDS011;55732;52.248;-0.844;2022-11-15T07:27:29;6.40;;;2.00;;
62925;SDS011;55732;52.248;-0.844;2022-11-15T07:29:54;7.60;;;2.40;;
62925;SDS011;55732;52.248;-0.844;2022-11-15T07:32:20;8.70;;;2.50;;
62925;SDS011;55732;52.248;-0.844;2022-11-15T07:34:45;9.80;;;2.10;;
62925;SDS011;55732;52.248;-0.844;2022-11-15T07:37:11;7.90;;;2.20;;
62925;SDS011;55732;52.248;-0.844;2022-11-15T07:39:37;6.00;;;2.00;;
62925;SDS011;55732;52.248;-0.844;2022-11-15T07:42:03;6.30;;;2.00;;
62925;SDS011;55732;52.248;-0.844;2022-11-15T07:44:47;8.90;;;2.10;;
62925;SDS011;55732;52.248;-0.844;2022-11-15T07:47:13;6.90;;;2.20;;
62925;SDS011;55732;52.248;-0.844;2022-11-15T07:49:38;6.40;;;2.30;;
62925;SDS011;55732;52.248;-0.844;2022-11-15T07:52:03;8.50;;;2.30;;
62925;SDS011;55732;52.248;-0.844;2022-11-15T07:54:29;6.00;;;1.90;;
62925;SDS011;55732;52.248;-0.844;2022-11-15T07:56:54;7.60;;;2.20;;
62925;SDS011;55732;52.248;-0.844;2022-11-15T07:59:20;6.30;;;1.90;;
62925;SDS011;55732;52.248;-0.844;2022-11-15T08:01:45;7.80;;;2.20;;
62925;SDS011;55732;52.248;-0.844;2022-11-15T08:04:11;8.00;;;2.30;;
62925;SDS011;55732;52.248;-0.844;2022-11-15T08:06:36;4.90;;;1.80;;
62925;SDS011;55732;52.248;-0.844;2022-11-15T08:09:02;4.80;;;1.90;;
62925;SDS011;55732;52.248;-0.844;2022-11-15T08:11:28;3.50;;;1.60;;
62925;SDS011;55732;52.248;-0.844;2022-11-15T08:13:54;6.20;;;1.70;;
62925;SDS011;55732;52.248;-0.844;2022-11-15T08:16:20;5.50;;;1.70;;
62925;SDS011;55732;52.248;-0.844;2022-11-15T08:18:45;7.00;;;1.70;;
62925;SDS011;55732;52.248;-0.844;2022-11-15T08:21:11;2.70;;;1.30;;
62925;SDS011;55732;52.248;-0.844;2022-11-15T08:23:42;2.50;;;1.50;;
62925;SDS011;55732;52.248;-0.844;2022-11-15T08:26:08;2.60;;;1.20;;
62925;SDS011;55732;52.248;-0.844;2022-11-15T08:28:34;2.80;;;1.30;;
62925;SDS011;55732;52.248;-0.844;2022-11-15T08:30:59;6.00;;;1.70;;
62925;SDS011;55732;52.248;-0.844;2022-11-15T08:33:24;3.70;;;1.30;;
62925;SDS011;55732;52.248;-0.844;2022-11-15T08:35:50;4.00;;;1.20;;
62925;SDS011;55732;52.248;-0.844;2022-11-15T08:38:15;2.40;;;1.40;;
62925;SDS011;55732;52.248;-0.844;2022-11-15T08:40:41;5.10;;;1.30;;
62925;SDS011;55732;52.248;-0.844;2022-11-15T08:43:06;2.20;;;1.30;;
62925;SDS011;55732;52.248;-0.844;2022-11-15T08:45:33;4.70;;;1.20;;
62925;SDS011;55732;52.248;-0.844;2022-11-15T08:48:00;1.30;;;1.00;;
62925;SDS011;55732;52.248;-0.844;2022-11-15T08:50:27;3.20;;;1.30;;
62925;SDS011;55732;52.248;-0.844;2022-11-15T08:52:52;2.00;;;1.20;;
62925;SDS011;55732;52.248;-0.844;2022-11-15T08:55:17;1.90;;;1.10;;
62925;SDS011;55732;52.248;-0.844;2022-11-15T08:57:43;2.70;;;1.10;;
62925;SDS011;55732;52.248;-0.844;2022-11-15T09:00:09;1.40;;;1.10;;
62925;SDS011;55732;52.248;-0.844;2022-11-15T09:02:37;3.40;;;1.40;;
62925;SDS011;55732;52.248;-0.844;2022-11-15T09:05:03;1.50;;;1.30;;
62925;SDS011;55732;52.248;-0.844;2022-11-15T09:07:30;2.30;;;1.40;;
62925;SDS011;55732;52.248;-0.844;2022-11-15T09:09:56;3.50;;;1.00;;
62925;SDS011;55732;52.248;-0.844;2022-11-15T09:12:23;2.30;;;1.00;;
62925;SDS011;55732;52.248;-0.844;2022-11-15T09:14:48;3.30;;;1.20;;
62925;SDS011;55732;52.248;-0.844;2022-11-15T09:17:14;3.80;;;1.50;;
62925;SDS011;55732;52.248;-0.844;2022-11-15T09:19:39;1.00;;;1.00;;
62925;SDS011;55732;52.248;-0.844;2022-11-15T09:22:05;1.30;;;1.10;;
62925;SDS011;55732;52.248;-0.844;2022-11-15T09:24:31;1.00;;;1.00;;
62925;SDS011;55732;52.248;-0.844;2022-11-15T09:26:57;1.20;;;1.00;;
62925;SDS011;55732;52.248;-0.844;2022-11-15T09:29:22;0.80;;;0.80;;
62925;SDS011;55732;52.248;-0.844;2022-11-15T09:31:48;1.10;;;0.80;;
62925;SDS011;55732;52.248;-0.844;2022-11-15T09:34:13;1.10;;;1.00;;
62925;SDS011;55732;52.248;-0.844;2022-11-15T09:36:38;0.90;;;0.90;;
62925;SDS011;55732;52.248;-0.844;2022-11-15T09:39:04;1.20;;;1.10;;
62925;SDS011;55732;52.248;-0.844;2022-11-15T09:41:50;1.50;;;0.90;;
62925;SDS011;55732;52.248;-0.844;2022-11-15T09:50:28;1.90;;;0.90;;
62925;SDS011;55732;52.248;-0.844;2022-11-15T09:53:10;0.80;;;0.80;;
62925;SDS011;55732;52.248;-0.844;2022-11-15T09:56:14;1.00;;;0.80;;
62925;SDS011;55732;52.248;-0.844;2022-11-15T10:01:48;1.40;;;1.00;;
62925;SDS011;55732;52.248;-0.844;2022-11-15T10:04:14;0.70;;;0.70;;
62925;SDS011;55732;52.248;-0.844;2022-11-15T10:06:46;0.70;;;0.70;;
62925;SDS011;55732;52.248;-0.844;2022-11-15T10:09:25;2.80;;;0.80;;
62925;SDS011;55732;52.248;-0.844;2022-11-15T10:11:57;1.30;;;0.80;;
62925;SDS011;55732;52.248;-0.844;2022-11-15T10:14:24;0.60;;;0.60;;
62925;SDS011;55732;52.248;-0.844;2022-11-15T10:19:42;1.20;;;0.90;;
62925;SDS011;55732;52.248;-0.844;2022-11-15T10:25:14;0.90;;;0.90;;
62925;SDS011;55732;52.248;-0.844;2022-11-15T10:27:43;0.70;;;0.70;;
62925;SDS011;55732;52.248;-0.844;2022-11-15T10:30:20;0.70;;;0.70;;
62925;SDS011;55732;52.248;-0.844;2022-11-15T10:32:46;1.30;;;0.80;;
62925;SDS011;55732;52.248;-0.844;2022-11-15T10:35:29;0.80;;;0.80;;
62925;SDS011;55732;52.248;-0.844;2022-11-15T10:38:05;1.10;;;0.70;;
62925;SDS011;55732;52.248;-0.844;2022-11-15T10:40:33;0.90;;;0.80;;
62925;SDS011;55732;52.248;-0.844;2022-11-15T10:45:39;1.00;;;0.90;;
62925;SDS011;55732;52.248;-0.844;2022-11-15T10:53:18;2.10;;;0.70;;
62925;SDS011;55732;52.248;-0.844;2022-11-15T10:55:49;1.20;;;1.10;;
62925;SDS011;55732;52.248;-0.844;2022-11-15T10:58:21;0.80;;;0.60;;
62925;SDS011;55732;52.248;-0.844;2022-11-15T11:00:47;1.40;;;1.00;;
62925;SDS011;55732;52.248;-0.844;2022-11-15T11:03:29;1.30;;;0.90;;
62925;SDS011;55732;52.248;-0.844;2022-11-15T11:06:10;1.60;;;1.00;;
62925;SDS011;55732;52.248;-0.844;2022-11-15T11:13:44;1.30;;;1.00;;
62925;SDS011;55732;52.248;-0.844;2022-11-15T11:35:24;1.00;;;1.00;;
62925;SDS011;55732;52.248;-0.844;2022-11-15T11:38:09;1.50;;;0.80;;
62925;SDS011;55732;52.248;-0.844;2022-11-15T11:40:50;1.10;;;0.90;;
62925;SDS011;55732;52.248;-0.844;2022-11-15T11:43:34;1.20;;;0.90;;
62925;SDS011;55732;52.248;-0.844;2022-11-15T11:48:52;2.40;;;1.00;;
62925;SDS011;55732;52.248;-0.844;2022-11-15T11:51:22;1.40;;;0.90;;
62925;SDS011;55732;52.248;-0.844;2022-11-15T11:56:50;0.90;;;0.90;;
62925;SDS011;55732;52.248;-0.844;2022-11-15T11:59:24;2.80;;;0.90;;
62925;SDS011;55732;52.248;-0.844;2022-11-15T12:02:01;1.40;;;1.20;;
62925;SDS011;55732;52.248;-0.844;2022-11-15T12:04:41;0.80;;;0.80;;
62925;SDS011;55732;52.248;-0.844;2022-11-15T12:07:13;3.60;;;1.10;;
62925;SDS011;55732;52.248;-0.844;2022-11-15T12:09:44;1.50;;;0.90;;
62925;SDS011;55732;52.248;-0.844;2022-11-15T12:15:18;1.60;;;1.10;;
62925;SDS011;55732;52.248;-0.844;2022-11-15T12:17:47;1.40;;;1.10;;
62925;SDS011;55732;52.248;-0.844;2022-11-15T12:20:17;1.00;;;0.80;;
62925;SDS011;55732;52.248;-0.844;2022-11-15T12:30:57;0.80;;;0.80;;
62925;SDS011;55732;52.248;-0.844;2022-11-15T12:35:58;0.90;;;0.90;;
62925;SDS011;55732;52.248;-0.844;2022-11-15T12:41:21;0.80;;;0.80;;
62925;SDS011;55732;52.248;-0.844;2022-11-15T12:43:49;0.90;;;0.90;;
62925;SDS011;55732;52.248;-0.844;2022-11-15T12:46:20;0.80;;;0.80;;
62925;SDS011;55732;52.248;-0.844;2022-11-15T12:48:52;1.40;;;1.10;;
62925;SDS011;55732;52.248;-0.844;2022-11-15T12:52:04;1.90;;;1.00;;
62925;SDS011;55732;52.248;-0.844;2022-11-15T13:02:20;0.90;;;0.90;;
62925;SDS011;55732;52.248;-0.844;2022-11-15T13:04:49;1.20;;;0.90;;
62925;SDS011;55732;52.248;-0.844;2022-11-15T13:15:33;2.40;;;1.00;;
62925;SDS011;55732;52.248;-0.844;2022-11-15T13:18:29;2.50;;;2.00;;
62925;SDS011;55732;52.248;-0.844;2022-11-15T13:21:04;2.80;;;1.50;;
62925;SDS011;55732;52.248;-0.844;2022-11-15T13:24:03;1.70;;;1.10;;
62925;SDS011;55732;52.248;-0.844;2022-11-15T13:26:29;2.10;;;1.30;;
62925;SDS011;55732;52.248;-0.844;2022-11-15T13:28:56;1.00;;;0.90;;
62925;SDS011;55732;52.248;-0.844;2022-11-15T13:31:37;1.20;;;0.90;;
62925;SDS011;55732;52.248;-0.844;2022-11-15T13:34:20;2.60;;;0.80;;
62925;SDS011;55732;52.248;-0.844;2022-11-15T13:36:53;1.80;;;0.80;;
62925;SDS011;55732;52.248;-0.844;2022-11-15T13:41:51;0.90;;;0.50;;
62925;SDS011;55732;52.248;-0.844;2022-11-15T13:44:24;0.70;;;0.40;;
62925;SDS011;55732;52.248;-0.844;2022-11-15T13:47:05;0.60;;;0.60;;
62925;SDS011;55732;52.248;-0.844;2022-11-15T13:49:37;1.00;;;0.80;;
62925;SDS011;55732;52.248;-0.844;2022-11-15T13:52:04;0.60;;;0.60;;
62925;SDS011;55732;52.248;-0.844;2022-11-15T13:54:50;1.10;;;0.70;;
62925;SDS011;55732;52.248;-0.844;2022-11-15T13:57:22;0.80;;;0.80;;
62925;SDS011;55732;52.248;-0.844;2022-11-15T13:59:54;2.00;;;0.90;;
62925;SDS011;55732;52.248;-0.844;2022-11-15T14:02:26;0.80;;;0.70;;
62925;SDS011;55732;52.248;-0.844;2022-11-15T14:04:55;1.00;;;0.70;;
62925;SDS011;55732;52.248;-0.844;2022-11-15T14:07:30;0.90;;;0.90;;
62925;SDS011;55732;52.248;-0.844;2022-11-15T14:09:57;2.40;;;1.30;;
62925;SDS011;55732;52.248;-0.844;2022-11-15T14:14:55;1.00;;;0.90;;
62925;SDS011;55732;52.248;-0.844;2022-11-15T14:19:56;1.40;;;1.30;;
62925;SDS011;55732;52.248;-0.844;2022-11-15T14:22:26;1.10;;;1.10;;
62925;SDS011;55732;52.248;-0.844;2022-11-15T14:27:44;2.80;;;1.30;;
62925;SDS011;55732;52.248;-0.844;2022-11-15T14:30:55;2.00;;;1.40;;
62925;SDS011;55732;52.248;-0.844;2022-11-15T14:33:30;3.00;;;1.20;;
62925;SDS011;55732;52.248;-0.844;2022-11-15T14:35:58;2.20;;;1.10;;
62925;SDS011;55732;52.248;-0.844;2022-11-15T14:38:28;1.30;;;1.10;;
62925;SDS011;55732;52.248;-0.844;2022-11-15T14:40:54;3.40;;;1.50;;
62925;SDS011;55732;52.248;-0.844;2022-11-15T14:43:21;1.70;;;1.30;;
62925;SDS011;55732;52.248;-0.844;2022-11-15T14:45:47;4.00;;;1.50;;
62925;SDS011;55732;52.248;-0.844;2022-11-15T14:48:12;1.10;;;1.00;;
62925;SDS011;55732;52.248;-0.844;2022-11-15T14:50:37;2.60;;;1.20;;
62925;SDS011;55732;52.248;-0.844;2022-11-15T14:53:03;0.90;;;0.90;;
62925;SDS011;55732;52.248;-0.844;2022-11-15T14:55:33;2.10;;;1.40;;
62925;SDS011;55732;52.248;-0.844;2022-11-15T14:58:04;1.30;;;0.90;;
62925;SDS011;55732;52.248;-0.844;2022-11-15T15:00:34;0.80;;;0.80;;
62925;SDS011;55732;52.248;-0.844;2022-11-15T15:03:04;0.50;;;0.50;;
62925;SDS011;55732;52.248;-0.844;2022-11-15T15:05:36;0.70;;;0.70;;
62925;SDS011;55732;52.248;-0.844;2022-11-15T15:08:03;3.70;;;1.00;;
62925;SDS011;55732;52.248;-0.844;2022-11-15T15:10:33;1.60;;;1.20;;
62925;SDS011;55732;52.248;-0.844;2022-11-15T15:13:02;3.90;;;1.10;;
62925;SDS011;55732;52.248;-0.844;2022-11-15T15:15:35;2.60;;;1.30;;
62925;SDS011;55732;52.248;-0.844;2022-11-15T15:18:02;2.30;;;1.30;;
62925;SDS011;55732;52.248;-0.844;2022-11-15T15:22:56;1.30;;;1.20;;
62925;SDS011;55732;52.248;-0.844;2022-11-15T15:25:26;2.00;;;1.00;;
62925;SDS011;55732;52.248;-0.844;2022-11-15T15:27:54;2.40;;;1.10;;
62925;SDS011;55732;52.248;-0.844;2022-11-15T15:30:20;1.40;;;1.30;;
62925;SDS011;55732;52.248;-0.844;2022-11-15T15:32:47;2.80;;;1.40;;
62925;SDS011;55732;52.248;-0.844;2022-11-15T15:35:13;2.20;;;1.30;;
62925;SDS011;55732;52.248;-0.844;2022-11-15T15:37:40;1.60;;;1.40;;
62925;SDS011;55732;52.248;-0.844;2022-11-15T15:40:25;2.40;;;1.50;;
62925;SDS011;55732;52.248;-0.844;2022-11-15T15:42:53;1.40;;;1.30;;
62925;SDS011;55732;52.248;-0.844;2022-11-15T15:45:19;2.40;;;1.20;;
62925;SDS011;55732;52.248;-0.844;2022-11-15T15:47:45;1.80;;;1.30;;
62925;SDS011;55732;52.248;-0.844;2022-11-15T15:50:21;1.50;;;1.30;;
62925;SDS011;55732;52.248;-0.844;2022-11-15T15:52:54;2.00;;;1.20;;
62925;SDS011;55732;52.248;-0.844;2022-11-15T15:57:47;1.80;;;1.50;;
62925;SDS011;55732;52.248;-0.844;2022-11-15T16:00:13;1.40;;;1.20;;
62925;SDS011;55732;52.248;-0.844;2022-11-15T16:02:40;4.00;;;2.00;;
62925;SDS011;55732;52.248;-0.844;2022-11-15T16:05:06;2.60;;;1.60;;
62925;SDS011;55732;52.248;-0.844;2022-11-15T16:07:32;2.10;;;1.60;;
62925;SDS011;55732;52.248;-0.844;2022-11-15T16:09:58;3.00;;;1.80;;
62925;SDS011;55732;52.248;-0.844;2022-11-15T16:12:30;3.70;;;1.70;;
62925;SDS011;55732;52.248;-0.844;2022-11-15T16:14:57;3.50;;;1.70;;
62925;SDS011;55732;52.248;-0.844;2022-11-15T16:17:24;2.40;;;1.80;;
62925;SDS011;55732;52.248;-0.844;2022-11-15T16:19:52;5.20;;;2.00;;
62925;SDS011;55732;52.248;-0.844;2022-11-15T16:22:17;4.70;;;2.00;;
62925;SDS011;55732;52.248;-0.844;2022-11-15T16:24:42;3.90;;;1.90;;
62925;SDS011;55732;52.248;-0.844;2022-11-15T16:27:15;1.70;;;1.60;;
62925;SDS011;55732;52.248;-0.844;2022-11-15T16:29:42;3.00;;;1.50;;
62925;SDS011;55732;52.248;-0.844;2022-11-15T16:32:08;2.00;;;1.40;;
62925;SDS011;55732;52.248;-0.844;2022-11-15T16:34:33;3.20;;;1.50;;
62925;SDS011;55732;52.248;-0.844;2022-11-15T16:36:59;2.70;;;1.50;;
62925;SDS011;55732;52.248;-0.844;2022-11-15T16:39:24;4.60;;;1.60;;
62925;SDS011;55732;52.248;-0.844;2022-11-15T16:41:50;3.20;;;1.60;;
62925;SDS011;55732;52.248;-0.844;2022-11-15T16:44:16;6.00;;;1.80;;
62925;SDS011;55732;52.248;-0.844;2022-11-15T16:46:42;2.30;;;1.50;;
62925;SDS011;55732;52.248;-0.844;2022-11-15T16:49:12;2.60;;;1.60;;
62925;SDS011;55732;52.248;-0.844;2022-11-15T16:51:39;4.70;;;2.20;;
62925;SDS011;55732;52.248;-0.844;2022-11-15T16:54:06;5.20;;;2.10;;
62925;SDS011;55732;52.248;-0.844;2022-11-15T16:56:32;4.80;;;2.20;;